sensor_id;sensor_type;location;lat;lon;timestamp;pressure;altitude;pressure_sealevel;temperature;humidity
80892;BME280;70343;51.530;5.050;2024-01-07T00:00:28;101698.31;;;2.52;100.00
80892;BME280;70343;51.530;5.050;2024-01-07T00:02:53;101696.13;;;2.47;100.00
80892;BME280;70343;51.530;5.050;2024-01-07T00:05:19;101694.59;;;2.56;100.00
80892;BME280;70343;51.530;5.050;2024-01-07T00:07:44;101689.66;;;2.42;100.00
80892;BME280;70343;51.530;5.050;2024-01-07T00:10:10;101698.44;;;2.50;100.00
80892;BME280;70343;51.530;5.050;2024-01-07T00:12:35;101706.88;;;2.52;100.00
80892;BME280;70343;51.530;5.050;2024-01-07T00:15:01;101708.88;;;2.49;100.00
80892;BME280;70343;51.530;5.050;2024-01-07T00:17:26;101703.47;;;2.52;100.00
80892;BME280;70343;51.530;5.050;2024-01-07T00:19:52;101706.75;;;2.43;100.00
80892;BME280;70343;51.530;5.050;2024-01-07T00:22:17;101708.16;;;2.36;100.00
80892;BME280;70343;51.530;5.050;2024-01-07T00:24:43;101709.56;;;2.40;100.00
80892;BME280;70343;51.530;5.050;2024-01-07T00:27:09;101711.44;;;2.38;100.00
80892;BME280;70343;51.530;5.050;2024-01-07T00:29:34;101716.00;;;2.45;100.00
80892;BME280;70343;51.530;5.050;2024-01-07T00:32:01;101709.31;;;2.43;100.00
80892;BME280;70343;51.530;5.050;2024-01-07T00:34:27;101719.88;;;2.40;100.00
80892;BME280;70343;51.530;5.050;2024-01-07T00:36:53;101721.94;;;2.35;100.00
80892;BME280;70343;51.530;5.050;2024-01-07T00:39:18;101726.16;;;2.36;100.00
80892;BME280;70343;51.530;5.050;2024-01-07T00:41:44;101732.25;;;2.35;100.00
80892;BME280;70343;51.530;5.050;2024-01-07T00:44:09;101729.22;;;2.41;100.00
80892;BME280;70343;51.530;5.050;2024-01-07T00:46:34;101727.91;;;2.35;100.00
80892;BME280;70343;51.530;5.050;2024-01-07T00:49:00;101731.53;;;2.33;100.00
80892;BME280;70343;51.530;5.050;2024-01-07T00:51:25;101735.31;;;2.40;100.00
80892;BME280;70343;51.530;5.050;2024-01-07T00:53:51;101735.53;;;2.37;100.00
80892;BME280;70343;51.530;5.050;2024-01-07T00:56:16;101734.81;;;2.35;100.00
80892;BME280;70343;51.530;5.050;2024-01-07T00:58:42;101734.25;;;2.42;100.00
80892;BME280;70343;51.530;5.050;2024-01-07T01:01:07;101741.63;;;2.36;100.00
80892;BME280;70343;51.530;5.050;2024-01-07T01:03:33;101741.50;;;2.37;100.00
80892;BME280;70343;51.530;5.050;2024-01-07T01:05:58;101741.84;;;2.44;100.00
80892;BME280;70343;51.530;5.050;2024-01-07T01:08:24;101743.25;;;2.48;100.00
80892;BME280;70343;51.530;5.050;2024-01-07T01:10:50;101752.25;;;2.42;100.00
80892;BME280;70343;51.530;5.050;2024-01-07T01:13:15;101749.09;;;2.39;100.00
80892;BME280;70343;51.530;5.050;2024-01-07T01:15:41;101747.56;;;2.36;100.00
80892;BME280;70343;51.530;5.050;2024-01-07T01:18:06;101750.38;;;2.33;100.00
80892;BME280;70343;51.530;5.050;2024-01-07T01:20:32;101757.16;;;2.34;100.00
80892;BME280;70343;51.530;5.050;2024-01-07T01:22:57;101754.47;;;2.36;100.00
80892;BME280;70343;51.530;5.050;2024-01-07T01:25:23;101755.13;;;2.27;100.00
80892;BME280;70343;51.530;5.050;2024-01-07T01:27:48;101755.84;;;2.29;100.00
80892;BME280;70343;51.530;5.050;2024-01-07T01:30:14;101759.13;;;2.31;100.00
80892;BME280;70343;51.530;5.050;2024-01-07T01:32:39;101757.72;;;2.27;100.00
80892;BME280;70343;51.530;5.050;2024-01-07T01:35:05;101762.59;;;2.19;100.00
80892;BME280;70343;51.530;5.050;2024-01-07T01:37:31;101762.16;;;2.25;100.00
80892;BME280;70343;51.530;5.050;2024-01-07T01:40:00;101773.88;;;2.29;100.00
80892;BME280;70343;51.530;5.050;2024-01-07T01:42:26;101772.31;;;2.26;100.00
80892;BME280;70343;51.530;5.050;2024-01-07T01:44:52;101767.88;;;2.28;100.00
80892;BME280;70343;51.530;5.050;2024-01-07T01:47:22;101768.59;;;2.30;100.00
80892;BME280;70343;51.530;5.050;2024-01-07T01:49:48;101780.88;;;2.27;100.00
80892;BME280;70343;51.530;5.050;2024-01-07T01:52:14;101782.03;;;2.23;100.00
80892;BME280;70343;51.530;5.050;2024-01-07T01:54:40;101788.72;;;2.25;100.00
80892;BME280;70343;51.530;5.050;2024-01-07T01:57:05;101790.56;;;2.23;100.00
80892;BME280;70343;51.530;5.050;2024-01-07T01:59:33;101788.47;;;2.28;100.00
80892;BME280;70343;51.530;5.050;2024-01-07T02:02:00;101790.47;;;2.25;100.00
80892;BME280;70343;51.530;5.050;2024-01-07T02:04:26;101796.41;;;2.14;100.00
80892;BME280;70343;51.530;5.050;2024-01-07T02:06:51;101796.03;;;2.19;100.00
80892;BME280;70343;51.530;5.050;2024-01-07T02:09:17;101794.63;;;2.15;100.00
80892;BME280;70343;51.530;5.050;2024-01-07T02:11:42;101794.97;;;2.10;100.00
80892;BME280;70343;51.530;5.050;2024-01-07T02:14:08;101794.47;;;2.05;100.00
80892;BME280;70343;51.530;5.050;2024-01-07T02:16:33;101797.59;;;1.98;100.00
80892;BME280;70343;51.530;5.050;2024-01-07T02:18:59;101801.38;;;2.05;100.00
80892;BME280;70343;51.530;5.050;2024-01-07T02:21:24;101804.56;;;2.08;100.00
80892;BME280;70343;51.530;5.050;2024-01-07T02:23:50;101808.03;;;2.07;100.00
80892;BME280;70343;51.530;5.050;2024-01-07T02:26:15;101800.69;;;2.03;100.00
80892;BME280;70343;51.530;5.050;2024-01-07T02:28:41;101803.03;;;2.06;100.00
80892;BME280;70343;51.530;5.050;2024-01-07T02:31:06;101812.81;;;2.01;100.00
80892;BME280;70343;51.530;5.050;2024-01-07T02:33:32;101814.97;;;2.07;100.00
80892;BME280;70343;51.530;5.050;2024-01-07T02:35:58;101800.31;;;2.07;100.00
80892;BME280;70343;51.530;5.050;2024-01-07T02:38:23;101810.47;;;1.98;100.00
80892;BME280;70343;51.530;5.050;2024-01-07T02:40:49;101813.53;;;2.03;100.00
80892;BME280;70343;51.530;5.050;2024-01-07T02:43:14;101808.16;;;2.06;100.00
80892;BME280;70343;51.530;5.050;2024-01-07T02:45:39;101814.34;;;2.03;100.00
80892;BME280;70343;51.530;5.050;2024-01-07T02:48:05;101809.91;;;2.05;100.00
80892;BME280;70343;51.530;5.050;2024-01-07T02:50:32;101812.28;;;2.08;100.00
80892;BME280;70343;51.530;5.050;2024-01-07T02:52:57;101816.91;;;2.03;100.00
80892;BME280;70343;51.530;5.050;2024-01-07T02:55:23;101814.97;;;2.07;100.00
80892;BME280;70343;51.530;5.050;2024-01-07T02:57:48;101820.81;;;2.09;100.00
80892;BME280;70343;51.530;5.050;2024-01-07T03:00:14;101823.91;;;2.01;100.00
80892;BME280;70343;51.530;5.050;2024-01-07T03:02:39;101825.25;;;2.07;100.00
80892;BME280;70343;51.530;5.050;2024-01-07T03:05:05;101826.28;;;2.04;100.00
80892;BME280;70343;51.530;5.050;2024-01-07T03:07:30;101830.00;;;2.00;100.00
80892;BME280;70343;51.530;5.050;2024-01-07T03:09:56;101830.13;;;1.99;100.00
80892;BME280;70343;51.530;5.050;2024-01-07T03:12:21;101839.03;;;2.06;100.00
80892;BME280;70343;51.530;5.050;2024-01-07T03:14:47;101845.91;;;2.05;100.00
80892;BME280;70343;51.530;5.050;2024-01-07T03:17:12;101840.88;;;2.04;100.00
80892;BME280;70343;51.530;5.050;2024-01-07T03:19:40;101847.91;;;2.02;100.00
80892;BME280;70343;51.530;5.050;2024-01-07T03:22:07;101847.69;;;2.05;100.00
80892;BME280;70343;51.530;5.050;2024-01-07T03:24:33;101851.28;;;2.02;100.00
80892;BME280;70343;51.530;5.050;2024-01-07T03:26:58;101851.41;;;2.01;100.00
80892;BME280;70343;51.530;5.050;2024-01-07T03:29:24;101853.28;;;1.99;100.00
80892;BME280;70343;51.530;5.050;2024-01-07T03:31:49;101853.28;;;1.99;100.00
80892;BME280;70343;51.530;5.050;2024-01-07T03:34:16;101853.03;;;2.02;100.00
80892;BME280;70343;51.530;5.050;2024-01-07T03:36:41;101854.19;;;1.98;100.00
80892;BME280;70343;51.530;5.050;2024-01-07T03:39:07;101861.78;;;1.99;100.00
80892;BME280;70343;51.530;5.050;2024-01-07T03:41:32;101862.50;;;2.01;100.00
80892;BME280;70343;51.530;5.050;2024-01-07T03:43:57;101859.31;;;1.98;100.00
80892;BME280;70343;51.530;5.050;2024-01-07T03:46:23;101862.84;;;1.97;100.00
80892;BME280;70343;51.530;5.050;2024-01-07T03:48:48;101869.97;;;1.93;100.00
80892;BME280;70343;51.530;5.050;2024-01-07T03:51:14;101875.69;;;1.97;100.00
80892;BME280;70343;51.530;5.050;2024-01-07T03:53:39;101873.22;;;1.95;100.00
80892;BME280;70343;51.530;5.050;2024-01-07T03:56:05;101876.31;;;1.88;100.00
80892;BME280;70343;51.530;5.050;2024-01-07T03:58:31;101882.69;;;1.95;100.00
80892;BME280;70343;51.530;5.050;2024-01-07T04:00:56;101882.47;;;1.98;100.00
80892;BME280;70343;51.530;5.050;2024-01-07T04:03:22;101882.91;;;1.92;100.00
80892;BME280;70343;51.530;5.050;2024-01-07T04:05:47;101880.13;;;1.95;100.00
80892;BME280;70343;51.530;5.050;2024-01-07T04:08:13;101880.25;;;1.93;100.00
80892;BME280;70343;51.530;5.050;2024-01-07T04:10:41;101881.16;;;1.92;100.00
80892;BME280;70343;51.530;5.050;2024-01-07T04:13:06;101887.84;;;1.95;100.00
80892;BME280;70343;51.530;5.050;2024-01-07T04:15:32;101886.59;;;2.00;100.00
80892;BME280;70343;51.530;5.050;2024-01-07T04:18:01;101886.78;;;1.97;100.00
80892;BME280;70343;51.530;5.050;2024-01-07T04:20:26;101892.16;;;1.94;100.00
80892;BME280;70343;51.530;5.050;2024-01-07T04:22:52;101894.84;;;1.93;100.00
80892;BME280;70343;51.530;5.050;2024-01-07T04:25:17;101888.03;;;1.92;100.00
80892;BME280;70343;51.530;5.050;2024-01-07T04:27:43;101891.13;;;1.97;100.00
80892;BME280;70343;51.530;5.050;2024-01-07T04:30:08;101896.88;;;2.00;100.00
80892;BME280;70343;51.530;5.050;2024-01-07T04:32:34;101897.00;;;1.99;100.00
80892;BME280;70343;51.530;5.050;2024-01-07T04:35:00;101906.94;;;2.03;100.00
80892;BME280;70343;51.530;5.050;2024-01-07T04:37:25;101914.16;;;1.98;100.00
80892;BME280;70343;51.530;5.050;2024-01-07T04:39:51;101911.72;;;1.97;100.00
80892;BME280;70343;51.530;5.050;2024-01-07T04:42:17;101909.63;;;2.02;100.00
80892;BME280;70343;51.530;5.050;2024-01-07T04:44:42;101913.56;;;1.95;100.00
80892;BME280;70343;51.530;5.050;2024-01-07T04:47:31;101916.44;;;1.90;100.00
80892;BME280;70343;51.530;5.050;2024-01-07T04:49:59;101919.50;;;1.95;100.00
80892;BME280;70343;51.530;5.050;2024-01-07T04:52:25;101921.28;;;1.95;100.00
80892;BME280;70343;51.530;5.050;2024-01-07T04:54:54;101928.41;;;1.91;100.00
80892;BME280;70343;51.530;5.050;2024-01-07T04:57:20;101922.63;;;1.88;100.00
80892;BME280;70343;51.530;5.050;2024-01-07T04:59:46;101934.56;;;1.89;100.00
80892;BME280;70343;51.530;5.050;2024-01-07T05:02:12;101935.59;;;1.86;100.00
80892;BME280;70343;51.530;5.050;2024-01-07T05:04:37;101931.69;;;1.93;100.00
80892;BME280;70343;51.530;5.050;2024-01-07T05:07:03;101941.84;;;1.95;100.00
80892;BME280;70343;51.530;5.050;2024-01-07T05:09:29;101935.28;;;1.91;100.00
80892;BME280;70343;51.530;5.050;2024-01-07T05:11:55;101938.56;;;1.93;100.00
80892;BME280;70343;51.530;5.050;2024-01-07T05:14:20;101942.28;;;1.89;100.00
80892;BME280;70343;51.530;5.050;2024-01-07T05:16:47;101940.41;;;1.91;100.00
80892;BME280;70343;51.530;5.050;2024-01-07T05:19:13;101937.84;;;1.78;100.00
80892;BME280;70343;51.530;5.050;2024-01-07T05:21:38;101950.19;;;1.86;100.00
80892;BME280;70343;51.530;5.050;2024-01-07T05:24:04;101945.88;;;1.86;100.00
80892;BME280;70343;51.530;5.050;2024-01-07T05:26:30;101952.44;;;1.90;100.00
80892;BME280;70343;51.530;5.050;2024-01-07T05:28:55;101949.56;;;1.95;100.00
80892;BME280;70343;51.530;5.050;2024-01-07T05:31:21;101965.72;;;1.84;100.00
80892;BME280;70343;51.530;5.050;2024-01-07T05:33:47;101962.75;;;1.77;100.00
80892;BME280;70343;51.530;5.050;2024-01-07T05:36:12;101973.56;;;1.83;100.00
80892;BME280;70343;51.530;5.050;2024-01-07T05:38:38;101979.72;;;1.80;100.00
80892;BME280;70343;51.530;5.050;2024-01-07T05:41:04;101980.06;;;1.75;100.00
80892;BME280;70343;51.530;5.050;2024-01-07T05:43:30;101980.25;;;1.72;100.00
80892;BME280;70343;51.530;5.050;2024-01-07T05:45:56;101983.75;;;1.71;100.00
80892;BME280;70343;51.530;5.050;2024-01-07T05:48:22;101990.53;;;1.72;100.00
80892;BME280;70343;51.530;5.050;2024-01-07T05:50:48;101984.47;;;1.73;100.00
80892;BME280;70343;51.530;5.050;2024-01-07T05:53:14;101988.44;;;1.77;100.00
80892;BME280;70343;51.530;5.050;2024-01-07T05:55:39;101994.03;;;1.71;100.00
80892;BME280;70343;51.530;5.050;2024-01-07T05:58:04;101997.03;;;1.65;100.00
80892;BME280;70343;51.530;5.050;2024-01-07T06:00:30;102004.91;;;1.62;100.00
80892;BME280;70343;51.530;5.050;2024-01-07T06:02:56;102008.22;;;1.64;100.00
80892;BME280;70343;51.530;5.050;2024-01-07T06:05:21;102010.38;;;1.70;100.00
80892;BME280;70343;51.530;5.050;2024-01-07T06:07:47;102009.22;;;1.62;100.00
80892;BME280;70343;51.530;5.050;2024-01-07T06:10:12;102015.19;;;1.62;100.00
80892;BME280;70343;51.530;5.050;2024-01-07T06:12:38;102031.69;;;1.60;100.00
80892;BME280;70343;51.530;5.050;2024-01-07T06:15:03;102020.56;;;1.59;100.00
80892;BME280;70343;51.530;5.050;2024-01-07T06:17:30;102018.81;;;1.60;100.00
80892;BME280;70343;51.530;5.050;2024-01-07T06:19:56;102027.53;;;1.70;100.00
80892;BME280;70343;51.530;5.050;2024-01-07T06:22:22;102038.22;;;1.64;100.00
80892;BME280;70343;51.530;5.050;2024-01-07T06:24:47;102041.13;;;1.59;100.00
80892;BME280;70343;51.530;5.050;2024-01-07T06:27:13;102030.22;;;1.56;100.00
80892;BME280;70343;51.530;5.050;2024-01-07T06:29:39;102051.91;;;1.64;100.00
80892;BME280;70343;51.530;5.050;2024-01-07T06:32:04;102054.50;;;1.64;100.00
80892;BME280;70343;51.530;5.050;2024-01-07T06:34:30;102044.59;;;1.58;100.00
80892;BME280;70343;51.530;5.050;2024-01-07T06:36:55;102048.13;;;1.57;100.00
80892;BME280;70343;51.530;5.050;2024-01-07T06:39:21;102052.44;;;1.57;100.00
80892;BME280;70343;51.530;5.050;2024-01-07T06:41:46;102056.66;;;1.58;100.00
80892;BME280;70343;51.530;5.050;2024-01-07T06:44:12;102069.00;;;1.65;100.00
80892;BME280;70343;51.530;5.050;2024-01-07T06:46:37;102073.19;;;1.54;100.00
80892;BME280;70343;51.530;5.050;2024-01-07T06:49:03;102074.13;;;1.53;100.00
80892;BME280;70343;51.530;5.050;2024-01-07T06:51:28;102079.25;;;1.53;100.00
80892;BME280;70343;51.530;5.050;2024-01-07T06:53:54;102076.56;;;1.54;100.00
80892;BME280;70343;51.530;5.050;2024-01-07T06:56:19;102085.94;;;1.55;100.00
80892;BME280;70343;51.530;5.050;2024-01-07T06:58:45;102086.56;;;1.59;100.00
80892;BME280;70343;51.530;5.050;2024-01-07T07:01:10;102082.25;;;1.59;100.00
80892;BME280;70343;51.530;5.050;2024-01-07T07:03:37;102079.78;;;1.58;100.00
80892;BME280;70343;51.530;5.050;2024-01-07T07:06:02;102083.59;;;1.65;100.00
80892;BME280;70343;51.530;5.050;2024-01-07T07:08:28;102094.16;;;1.60;100.00
80892;BME280;70343;51.530;5.050;2024-01-07T07:10:53;102091.19;;;1.54;100.00
80892;BME280;70343;51.530;5.050;2024-01-07T07:13:19;102093.13;;;1.50;100.00
80892;BME280;70343;51.530;5.050;2024-01-07T07:15:44;102097.06;;;1.56;100.00
80892;BME280;70343;51.530;5.050;2024-01-07T07:18:10;102103.94;;;1.55;100.00
80892;BME280;70343;51.530;5.050;2024-01-07T07:20:35;102100.25;;;1.59;100.00
80892;BME280;70343;51.530;5.050;2024-01-07T07:23:00;102108.88;;;1.58;100.00
80892;BME280;70343;51.530;5.050;2024-01-07T07:25:26;102111.25;;;1.61;100.00
80892;BME280;70343;51.530;5.050;2024-01-07T07:27:51;102108.53;;;1.50;100.00
80892;BME280;70343;51.530;5.050;2024-01-07T07:30:18;102120.47;;;1.51;100.00
80892;BME280;70343;51.530;5.050;2024-01-07T07:32:43;102121.94;;;1.55;100.00
80892;BME280;70343;51.530;5.050;2024-01-07T07:35:09;102130.88;;;1.62;100.00
80892;BME280;70343;51.530;5.050;2024-01-07T07:37:35;102132.16;;;1.69;100.00
80892;BME280;70343;51.530;5.050;2024-01-07T07:40:00;102133.03;;;1.56;100.00
80892;BME280;70343;51.530;5.050;2024-01-07T07:42:26;102142.63;;;1.66;100.00
80892;BME280;70343;51.530;5.050;2024-01-07T07:44:51;102141.47;;;1.58;100.00
80892;BME280;70343;51.530;5.050;2024-01-07T07:47:16;102143.22;;;1.57;100.00
80892;BME280;70343;51.530;5.050;2024-01-07T07:49:42;102150.94;;;1.57;100.00
80892;BME280;70343;51.530;5.050;2024-01-07T07:52:08;102154.41;;;1.56;100.00
80892;BME280;70343;51.530;5.050;2024-01-07T07:54:39;102152.53;;;1.46;100.00
80892;BME280;70343;51.530;5.050;2024-01-07T07:57:05;102164.34;;;1.48;100.00
80892;BME280;70343;51.530;5.050;2024-01-07T07:59:30;102166.31;;;1.45;100.00
80892;BME280;70343;51.530;5.050;2024-01-07T08:01:56;102163.84;;;1.43;100.00
80892;BME280;70343;51.530;5.050;2024-01-07T08:04:22;102177.53;;;1.44;100.00
80892;BME280;70343;51.530;5.050;2024-01-07T08:06:47;102169.66;;;1.33;100.00
80892;BME280;70343;51.530;5.050;2024-01-07T08:09:13;102176.16;;;1.38;100.00
80892;BME280;70343;51.530;5.050;2024-01-07T08:11:38;102179.84;;;1.34;100.00
80892;BME280;70343;51.530;5.050;2024-01-07T08:14:03;102189.41;;;1.32;100.00
80892;BME280;70343;51.530;5.050;2024-01-07T08:16:31;102189.75;;;1.40;100.00
80892;BME280;70343;51.530;5.050;2024-01-07T08:18:57;102191.91;;;1.46;100.00
80892;BME280;70343;51.530;5.050;2024-01-07T08:21:22;102196.53;;;1.41;100.00
80892;BME280;70343;51.530;5.050;2024-01-07T08:23:48;102193.03;;;1.42;100.00
80892;BME280;70343;51.530;5.050;2024-01-07T08:26:20;102197.53;;;1.39;100.00
80892;BME280;70343;51.530;5.050;2024-01-07T08:28:46;102197.72;;;1.36;100.00
80892;BME280;70343;51.530;5.050;2024-01-07T08:31:11;102212.53;;;1.32;100.00
80892;BME280;70343;51.530;5.050;2024-01-07T08:33:37;102206.06;;;1.39;100.00
80892;BME280;70343;51.530;5.050;2024-01-07T08:36:02;102209.47;;;1.40;100.00
80892;BME280;70343;51.530;5.050;2024-01-07T08:38:29;102215.72;;;1.36;100.00
80892;BME280;70343;51.530;5.050;2024-01-07T08:40:55;102209.66;;;1.37;100.00
80892;BME280;70343;51.530;5.050;2024-01-07T08:43:20;102230.88;;;1.40;100.00
80892;BME280;70343;51.530;5.050;2024-01-07T08:45:46;102227.09;;;1.32;100.00
80892;BME280;70343;51.530;5.050;2024-01-07T08:48:11;102230.41;;;1.34;100.00
80892;BME280;70343;51.530;5.050;2024-01-07T08:50:38;102234.34;;;1.39;100.00
80892;BME280;70343;51.530;5.050;2024-01-07T08:53:04;102232.03;;;1.35;100.00
80892;BME280;70343;51.530;5.050;2024-01-07T08:55:30;102234.72;;;1.33;100.00
80892;BME280;70343;51.530;5.050;2024-01-07T08:57:55;102243.16;;;1.35;100.00
80892;BME280;70343;51.530;5.050;2024-01-07T09:00:21;102242.25;;;1.36;100.00
80892;BME280;70343;51.530;5.050;2024-01-07T09:02:51;102247.91;;;1.41;100.00
80892;BME280;70343;51.530;5.050;2024-01-07T09:05:17;102253.06;;;1.41;100.00
80892;BME280;70343;51.530;5.050;2024-01-07T09:07:42;102253.44;;;1.35;100.00
80892;BME280;70343;51.530;5.050;2024-01-07T09:10:08;102258.31;;;1.26;100.00
80892;BME280;70343;51.530;5.050;2024-01-07T09:12:38;102246.09;;;1.29;100.00
80892;BME280;70343;51.530;5.050;2024-01-07T09:15:04;102259.56;;;1.33;100.00
80892;BME280;70343;51.530;5.050;2024-01-07T09:17:37;102267.94;;;1.36;100.00
80892;BME280;70343;51.530;5.050;2024-01-07T09:20:07;102270.50;;;1.36;100.00
80892;BME280;70343;51.530;5.050;2024-01-07T09:22:34;102270.06;;;1.30;100.00
80892;BME280;70343;51.530;5.050;2024-01-07T09:25:02;102279.75;;;1.39;100.00
80892;BME280;70343;51.530;5.050;2024-01-07T09:27:29;102284.28;;;1.35;100.00
80892;BME280;70343;51.530;5.050;2024-01-07T09:29:55;102281.06;;;1.32;100.00
80892;BME280;70343;51.530;5.050;2024-01-07T09:32:20;102291.63;;;1.27;100.00
80892;BME280;70343;51.530;5.050;2024-01-07T09:34:46;102289.50;;;1.34;100.00
80892;BME280;70343;51.530;5.050;2024-01-07T09:37:11;102296.38;;;1.33;100.00
80892;BME280;70343;51.530;5.050;2024-01-07T09:39:40;102300.06;;;1.29;100.00
80892;BME280;70343;51.530;5.050;2024-01-07T09:42:16;102305.56;;;1.37;100.00
80892;BME280;70343;51.530;5.050;2024-01-07T09:44:43;102308.13;;;1.37;100.00
80892;BME280;70343;51.530;5.050;2024-01-07T09:47:12;102313.63;;;1.31;100.00
80892;BME280;70343;51.530;5.050;2024-01-07T09:49:42;102307.97;;;1.40;100.00
80892;BME280;70343;51.530;5.050;2024-01-07T09:52:10;102309.06;;;1.36;100.00
80892;BME280;70343;51.530;5.050;2024-01-07T09:54:37;102318.59;;;1.34;100.00
80892;BME280;70343;51.530;5.050;2024-01-07T09:57:07;102312.63;;;1.48;100.00
80892;BME280;70343;51.530;5.050;2024-01-07T09:59:36;102333.47;;;1.43;100.00
80892;BME280;70343;51.530;5.050;2024-01-07T10:02:03;102334.03;;;1.34;100.00
80892;BME280;70343;51.530;5.050;2024-01-07T10:04:29;102344.94;;;1.38;100.00
80892;BME280;70343;51.530;5.050;2024-01-07T10:06:55;102333.47;;;1.43;100.00
80892;BME280;70343;51.530;5.050;2024-01-07T10:09:24;102342.38;;;1.38;100.00
80892;BME280;70343;51.530;5.050;2024-01-07T10:11:53;102338.78;;;1.40;100.00
80892;BME280;70343;51.530;5.050;2024-01-07T10:14:19;102346.41;;;1.42;100.00
80892;BME280;70343;51.530;5.050;2024-01-07T10:16:48;102348.41;;;1.37;100.00
80892;BME280;70343;51.530;5.050;2024-01-07T10:19:20;102348.88;;;1.29;100.00
80892;BME280;70343;51.530;5.050;2024-01-07T10:21:46;102337.22;;;1.38;100.00
80892;BME280;70343;51.530;5.050;2024-01-07T10:24:12;102339.53;;;1.42;100.00
80892;BME280;70343;51.530;5.050;2024-01-07T10:26:39;102348.41;;;1.37;100.00
80892;BME280;70343;51.530;5.050;2024-01-07T10:29:05;102357.69;;;1.25;100.00
80892;BME280;70343;51.530;5.050;2024-01-07T10:31:32;102352.00;;;1.20;100.00
80892;BME280;70343;51.530;5.050;2024-01-07T10:33:57;102347.03;;;1.17;100.00
80892;BME280;70343;51.530;5.050;2024-01-07T10:36:24;102354.13;;;1.28;100.00
80892;BME280;70343;51.530;5.050;2024-01-07T10:38:50;102356.94;;;1.23;100.00
80892;BME280;70343;51.530;5.050;2024-01-07T10:41:19;102356.22;;;1.21;100.00
80892;BME280;70343;51.530;5.050;2024-01-07T10:43:48;102346.22;;;1.17;100.00
80892;BME280;70343;51.530;5.050;2024-01-07T10:46:14;102352.00;;;1.20;100.00
80892;BME280;70343;51.530;5.050;2024-01-07T10:49:04;102364.28;;;1.29;100.00
80892;BME280;70343;51.530;5.050;2024-01-07T10:51:34;102362.56;;;1.30;100.00
80892;BME280;70343;51.530;5.050;2024-01-07T10:54:00;102358.50;;;1.26;100.00
80892;BME280;70343;51.530;5.050;2024-01-07T10:56:34;102367.16;;;1.25;100.00
80892;BME280;70343;51.530;5.050;2024-01-07T10:59:04;102365.59;;;1.22;100.00
80892;BME280;70343;51.530;5.050;2024-01-07T11:01:29;102373.47;;;1.19;100.00
80892;BME280;70343;51.530;5.050;2024-01-07T11:04:01;102369.16;;;1.20;100.00
80892;BME280;70343;51.530;5.050;2024-01-07T11:06:41;102374.19;;;1.21;100.00
80892;BME280;70343;51.530;5.050;2024-01-07T11:09:21;102372.38;;;1.23;100.00
80892;BME280;70343;51.530;5.050;2024-01-07T11:11:49;102376.41;;;1.27;100.00
80892;BME280;70343;51.530;5.050;2024-01-07T11:14:34;102380.06;;;1.23;100.00
80892;BME280;70343;51.530;5.050;2024-01-07T11:17:00;102372.56;;;1.34;100.00
80892;BME280;70343;51.530;5.050;2024-01-07T11:19:26;102382.47;;;1.40;100.00
80892;BME280;70343;51.530;5.050;2024-01-07T11:21:51;102373.09;;;1.39;100.00
80892;BME280;70343;51.530;5.050;2024-01-07T11:24:38;102368.59;;;1.43;100.00
80892;BME280;70343;51.530;5.050;2024-01-07T11:27:04;102373.84;;;1.41;100.00
80892;BME280;70343;51.530;5.050;2024-01-07T11:29:31;102367.59;;;1.45;100.00
80892;BME280;70343;51.530;5.050;2024-01-07T11:31:57;102371.09;;;1.44;100.00
80892;BME280;70343;51.530;5.050;2024-01-07T11:34:41;102368.53;;;1.44;100.00
80892;BME280;70343;51.530;5.050;2024-01-07T11:37:14;102363.03;;;1.36;100.00
80892;BME280;70343;51.530;5.050;2024-01-07T11:39:44;102365.31;;;1.27;100.00
80892;BME280;70343;51.530;5.050;2024-01-07T11:42:10;102377.34;;;1.26;100.00
80892;BME280;70343;51.530;5.050;2024-01-07T11:44:37;102366.69;;;1.32;100.00
80892;BME280;70343;51.530;5.050;2024-01-07T11:47:06;102370.00;;;1.34;100.00
80892;BME280;70343;51.530;5.050;2024-01-07T11:49:34;102371.09;;;1.44;100.00
80892;BME280;70343;51.530;5.050;2024-01-07T11:52:00;102369.53;;;1.42;100.00
80892;BME280;70343;51.530;5.050;2024-01-07T11:54:27;102377.59;;;1.36;100.00
80892;BME280;70343;51.530;5.050;2024-01-07T11:56:53;102374.56;;;1.43;100.00
80892;BME280;70343;51.530;5.050;2024-01-07T11:59:19;102374.38;;;1.46;100.00
80892;BME280;70343;51.530;5.050;2024-01-07T12:01:44;102376.16;;;1.46;100.00
80892;BME280;70343;51.530;5.050;2024-01-07T12:04:10;102376.50;;;1.40;100.00
80892;BME280;70343;51.530;5.050;2024-01-07T12:06:38;102383.97;;;1.44;100.00
80892;BME280;70343;51.530;5.050;2024-01-07T12:09:03;102381.75;;;1.38;100.00
80892;BME280;70343;51.530;5.050;2024-01-07T12:11:29;102377.50;;;1.37;100.00
80892;BME280;70343;51.530;5.050;2024-01-07T12:13:54;102378.59;;;1.33;100.00
80892;BME280;70343;51.530;5.050;2024-01-07T12:16:20;102365.22;;;1.28;100.00
80892;BME280;70343;51.530;5.050;2024-01-07T12:18:46;102369.81;;;1.37;100.00
80892;BME280;70343;51.530;5.050;2024-01-07T12:21:18;102373.94;;;1.40;100.00
80892;BME280;70343;51.530;5.050;2024-01-07T12:23:48;102368.06;;;1.52;100.00
80892;BME280;70343;51.530;5.050;2024-01-07T12:26:13;102375.03;;;1.50;100.00
80892;BME280;70343;51.530;5.050;2024-01-07T12:28:39;102372.38;;;1.51;100.00
80892;BME280;70343;51.530;5.050;2024-01-07T12:31:05;102376.84;;;1.62;100.00
80892;BME280;70343;51.530;5.050;2024-01-07T12:33:30;102376.22;;;1.58;100.00
80892;BME280;70343;51.530;5.050;2024-01-07T12:35:57;102383.56;;;1.64;100.00
80892;BME280;70343;51.530;5.050;2024-01-07T12:38:26;102393.00;;;1.64;100.00
80892;BME280;70343;51.530;5.050;2024-01-07T12:40:55;102385.22;;;1.65;100.00
80892;BME280;70343;51.530;5.050;2024-01-07T12:43:21;102394.19;;;1.72;100.00
80892;BME280;70343;51.530;5.050;2024-01-07T12:45:48;102401.34;;;1.81;100.00